Time;durP1;ratioP1;P1;durP2;ratioP2;P2;SDS_P1;SDS_P2;PMS_P1;PMS_P2;Temp;Humidity;BMP_temperature;BMP_pressure;BME280_temperature;BME280_humidity;BME280_pressure;Samples;Min_cycle;Max_cycle;Signal;HPM_P1;HPM_P2
2023/06/05 00:00:14;;;;;;;10.85;2.55;;;;;;;12.77;85.08;96949.53;5054556;28;20407;-62
2023/06/05 00:02:42;;;;;;;9.73;2.20;;;;;;;12.71;85.11;96945.41;5054342;28;20547;-61
2023/06/05 00:05:09;;;;;;;12.65;2.00;;;;;;;12.65;84.82;96940.41;5054557;28;20124;-61
2023/06/05 00:07:38;;;;;;;7.07;2.70;;;;;;;12.60;84.92;96940.56;5054522;28;20045;-61
2023/06/05 00:10:07;;;;;;;7.68;2.08;;;;;;;12.56;85.49;96938.13;5054227;28;20490;-62
2023/06/05 00:12:34;;;;;;;17.00;3.13;;;;;;;12.57;85.04;96938.06;5054328;28;20056;-64
2023/06/05 00:15:03;;;;;;;9.68;2.10;;;;;;;12.56;84.82;96944.25;5054145;28;20052;-63
2023/06/05 00:17:31;;;;;;;12.52;2.80;;;;;;;12.50;84.96;96939.22;5054233;28;20544;-62
2023/06/05 00:19:59;;;;;;;11.50;2.38;;;;;;;12.40;85.22;96935.25;5054045;28;20048;-63
2023/06/05 00:22:27;;;;;;;8.55;2.83;;;;;;;12.33;85.85;96937.25;5054055;28;20085;-62
2023/06/05 00:24:54;;;;;;;10.43;2.40;;;;;;;12.29;86.10;96933.91;5053931;28;20059;-61
2023/06/05 00:27:21;;;;;;;3.67;2.20;;;;;;;12.26;86.28;96926.16;5053935;28;20111;-62
2023/06/05 00:29:48;;;;;;;7.38;2.28;;;;;;;12.25;86.33;96925.28;5053047;28;20091;-63
2023/06/05 00:32:17;;;;;;;7.47;4.50;;;;;;;12.30;86.46;96924.25;5053751;28;20040;-62
2023/06/05 00:34:44;;;;;;;6.22;2.55;;;;;;;12.26;86.15;96924.38;5053647;28;20059;-61
2023/06/05 00:37:13;;;;;;;5.40;2.17;;;;;;;12.24;85.82;96926.22;5053636;28;20478;-62
2023/06/05 00:39:40;;;;;;;8.85;2.20;;;;;;;12.21;85.38;96926.34;5053702;28;20120;-61
2023/06/05 00:42:08;;;;;;;8.65;2.38;;;;;;;12.22;85.37;96925.41;5053926;28;20049;-63
2023/06/05 00:44:35;;;;;;;10.30;2.17;;;;;;;12.25;85.10;96934.91;5053561;28;20041;-62
2023/06/05 00:47:04;;;;;;;11.82;2.47;;;;;;;12.19;84.49;96936.03;5053460;28;20059;-61
2023/06/05 00:49:33;;;;;;;7.05;2.50;;;;;;;12.19;84.34;96943.06;5053506;28;20049;-62
2023/06/05 00:52:01;;;;;;;4.45;2.55;;;;;;;12.17;83.85;96942.25;5053452;28;20224;-61
2023/06/05 00:54:29;;;;;;;8.30;2.45;;;;;;;12.04;83.39;96933.97;5053525;28;20541;-63
2023/06/05 00:56:56;;;;;;;6.03;2.00;;;;;;;11.97;83.11;96935.94;5053395;28;20103;-63
2023/06/05 00:59:24;;;;;;;12.38;2.47;;;;;;;11.82;84.06;96934.75;5053301;28;20391;-62
2023/06/05 01:01:52;;;;;;;7.10;1.88;;;;;;;11.83;84.36;96934.69;5053454;28;20104;-61
2023/06/05 01:04:19;;;;;;;9.98;2.95;;;;;;;11.80;84.40;96928.72;5053377;28;20045;-62
2023/06/05 01:06:48;;;;;;;5.93;2.25;;;;;;;11.77;85.32;96934.91;5053182;28;20073;-61
2023/06/05 01:09:15;;;;;;;9.45;2.67;;;;;;;11.77;85.12;96934.06;5053188;28;20119;-61
2023/06/05 01:11:53;;;;;;;14.98;2.45;;;;;;;11.74;85.34;96930.63;5053335;28;20053;-61
2023/06/05 01:14:23;;;;;;;8.27;2.65;;;;;;;11.73;85.21;96934.19;5053300;28;20467;-62
2023/06/05 01:16:53;;;;;;;10.33;2.80;;;;;;;11.65;85.32;96923.09;5053194;28;20392;-61
2023/06/05 01:19:24;;;;;;;12.25;2.58;;;;;;;11.62;85.78;96923.25;5053150;28;20052;-64
2023/06/05 01:21:53;;;;;;;6.60;3.00;;;;;;;11.62;86.16;96918.00;5053132;28;20569;-62
2023/06/05 01:24:22;;;;;;;10.45;2.90;;;;;;;11.67;86.98;96926.53;5053087;28;20044;-62
2023/06/05 01:27:02;;;;;;;9.85;2.92;;;;;;;11.63;86.61;96925.78;5053061;28;20414;-62
2023/06/05 01:29:34;;;;;;;13.38;3.70;;;;;;;11.61;86.94;96919.75;5052952;28;20053;-62
2023/06/05 01:32:07;;;;;;;6.35;2.50;;;;;;;11.65;87.16;96922.28;5053087;28;20128;-62
2023/06/05 01:34:35;;;;;;;6.90;2.80;;;;;;;11.59;86.92;96918.13;5052607;28;20075;-63
2023/06/05 01:37:03;;;;;;;12.23;2.80;;;;;;;11.47;88.30;96922.88;5052854;28;20102;-61
2023/06/05 01:39:33;;;;;;;15.57;2.85;;;;;;;11.50;88.99;96925.38;5052825;28;20102;-64
2023/06/05 01:42:01;;;;;;;17.80;3.05;;;;;;;11.53;88.59;96928.81;5056851;28;20044;-62
2023/06/05 01:44:28;;;;;;;7.13;3.00;;;;;;;11.48;88.34;96935.06;5057092;28;20174;-61
2023/06/05 01:46:55;;;;;;;5.28;2.63;;;;;;;11.45;88.34;96936.94;5057012;28;20045;-62
2023/06/05 01:49:23;;;;;;;19.55;3.67;;;;;;;11.48;88.20;96937.69;5057138;28;20040;-64
2023/06/05 01:51:50;;;;;;;9.68;3.10;;;;;;;11.48;88.36;96929.84;5056901;28;20048;-64
2023/06/05 01:54:18;;;;;;;10.13;2.95;;;;;;;11.44;88.31;96924.75;5056924;28;20044;-61
2023/06/05 01:56:47;;;;;;;11.38;2.92;;;;;;;11.40;88.31;96931.84;5056857;28;20107;-63
2023/06/05 01:59:15;;;;;;;8.15;3.05;;;;;;;11.41;88.50;96922.25;5056977;28;20045;-61
2023/06/05 02:01:44;;;;;;;5.05;3.17;;;;;;;11.41;88.73;96917.00;5056647;28;20139;-61
2023/06/05 02:04:16;;;;;;;6.80;2.80;;;;;;;11.45;88.59;96916.84;5056731;28;20106;-62
2023/06/05 02:06:43;;;;;;;13.25;3.00;;;;;;;11.42;88.67;96916.94;5056536;28;20060;-61
2023/06/05 02:09:12;;;;;;;5.10;2.78;;;;;;;11.41;89.01;96912.59;5056658;28;21166;-64
2023/06/05 02:11:42;;;;;;;7.97;2.70;;;;;;;11.41;89.45;96917.84;5056559;28;20120;-61
2023/06/05 02:14:13;;;;;;;7.30;2.40;;;;;;;11.42;89.16;96923.94;5056500;28;20522;-63
2023/06/05 02:16:41;;;;;;;6.97;2.55;;;;;;;11.40;88.55;96913.53;5056462;28;20048;-62
2023/06/05 02:19:09;;;;;;;11.32;3.00;;;;;;;11.46;88.89;96920.28;5056296;28;20053;-61
2023/06/05 02:21:36;;;;;;;6.50;2.78;;;;;;;11.52;88.77;96927.06;5056314;28;20498;-63
2023/06/05 02:24:04;;;;;;;14.93;2.83;;;;;;;11.53;88.96;96927.03;5056262;28;20136;-62
2023/06/05 02:26:32;;;;;;;3.55;2.88;;;;;;;11.55;88.79;96940.94;5056239;28;20118;-61
2023/06/05 02:28:59;;;;;;;3.47;2.60;;;;;;;11.55;88.60;96935.69;5056177;28;20056;-63
2023/06/05 02:31:29;;;;;;;8.40;2.88;;;;;;;11.57;88.57;96935.66;5055998;28;20084;-62
2023/06/05 02:33:57;;;;;;;13.13;2.67;;;;;;;11.59;89.24;96929.44;5055804;28;20045;-64
2023/06/05 02:36:24;;;;;;;4.70;2.90;;;;;;;11.60;89.66;96922.44;5056018;28;20123;-61
2023/06/05 02:38:52;;;;;;;9.68;2.80;;;;;;;11.64;89.86;96924.03;5056079;28;20049;-63
2023/06/05 02:41:21;;;;;;;10.18;3.20;;;;;;;11.70;90.15;96922.94;5055980;28;20479;-61
2023/06/05 02:43:48;;;;;;;5.45;2.63;;;;;;;11.74;90.69;96922.78;5055795;28;20049;-64
2023/06/05 02:46:15;;;;;;;10.55;2.90;;;;;;;11.82;91.39;96916.41;5055836;28;20118;-62
2023/06/05 02:48:44;;;;;;;7.72;2.90;;;;;;;11.83;91.77;96920.75;5056007;28;20053;-62
2023/06/05 02:51:11;;;;;;;8.80;2.67;;;;;;;11.92;92.20;96922.16;5055702;28;20071;-62
2023/06/05 02:53:39;;;;;;;12.25;2.83;;;;;;;11.99;92.65;96919.25;5055041;28;20068;-64
2023/06/05 02:56:06;;;;;;;3.45;2.60;;;;;;;12.04;92.89;96928.72;5055646;28;20049;-62
2023/06/05 02:58:34;;;;;;;5.90;3.22;;;;;;;12.09;92.94;96935.53;5055812;28;20049;-61
2023/06/05 03:01:02;;;;;;;4.70;2.75;;;;;;;12.14;92.68;96930.13;5055674;28;20049;-61
2023/06/05 03:03:31;;;;;;;6.78;2.42;;;;;;;12.17;92.58;96934.38;5055520;28;20126;-63
2023/06/05 03:06:04;;;;;;;7.47;2.80;;;;;;;12.22;92.84;96938.53;5055621;28;20045;-64
2023/06/05 03:08:33;;;;;;;5.57;3.25;;;;;;;12.30;93.33;96933.00;5055555;28;20053;-63
2023/06/05 03:11:04;;;;;;;10.98;4.05;;;;;;;12.31;93.75;96931.22;5055290;28;20056;-63
2023/06/05 03:13:32;;;;;;;10.25;3.78;;;;;;;12.40;94.62;96932.63;5055424;28;20063;-61
2023/06/05 03:16:00;;;;;;;7.60;3.35;;;;;;;12.46;95.33;96933.25;5055463;28;20056;-62
2023/06/05 03:18:28;;;;;;;11.90;3.80;;;;;;;12.56;95.50;96932.88;5055334;28;20407;-62
2023/06/05 03:21:00;;;;;;;9.45;3.10;;;;;;;12.62;95.32;96927.41;5055279;28;20053;-61
2023/06/05 03:23:29;;;;;;;7.25;3.55;;;;;;;12.64;95.25;96929.03;5055198;28;20045;-62
2023/06/05 03:25:57;;;;;;;11.30;3.83;;;;;;;12.68;95.41;96928.91;5055050;28;20053;-64
2023/06/05 03:28:25;;;;;;;7.13;3.08;;;;;;;12.75;95.64;96925.13;5055169;28;20482;-64
2023/06/05 03:30:53;;;;;;;9.40;4.15;;;;;;;12.82;95.56;96925.75;5054883;28;20135;-61
2023/06/05 03:33:20;;;;;;;8.48;3.15;;;;;;;12.92;96.23;96926.19;5054838;28;20438;-61
2023/06/05 03:35:47;;;;;;;4.85;3.28;;;;;;;13.01;96.21;96933.69;5054960;28;20072;-63
2023/06/05 03:38:15;;;;;;;3.47;2.58;;;;;;;13.08;95.61;96922.03;5054900;28;20049;-63
2023/06/05 03:40:43;;;;;;;8.98;2.88;;;;;;;13.20;95.38;96928.53;5054780;28;20052;-63
2023/06/05 03:43:11;;;;;;;5.50;3.50;;;;;;;13.32;94.89;96926.28;5054818;28;20053;-64
2023/06/05 03:45:39;;;;;;;7.95;3.08;;;;;;;13.44;95.16;96927.53;5054827;28;20404;-62
2023/06/05 03:48:15;;;;;;;5.05;3.13;;;;;;;13.57;95.26;96925.28;5054801;28;20452;-62
2023/06/05 03:50:44;;;;;;;6.28;3.10;;;;;;;13.65;95.34;96933.66;5054606;28;20585;-62
2023/06/05 03:53:13;;;;;;;12.05;4.07;;;;;;;13.79;95.30;96924.31;5054624;28;20045;-64
2023/06/05 03:55:42;;;;;;;8.50;3.22;;;;;;;13.86;94.48;96920.47;5054546;28;20098;-62
2023/06/05 03:58:13;;;;;;;9.63;3.30;;;;;;;13.94;94.21;96925.38;5054543;28;20045;-64
2023/06/05 04:00:42;;;;;;;8.32;3.90;;;;;;;14.01;94.17;96926.81;5054389;28;20055;-62
2023/06/05 04:03:11;;;;;;;11.55;3.83;;;;;;;14.05;94.13;96917.03;5054063;28;20087;-62
2023/06/05 04:05:39;;;;;;;13.40;4.68;;;;;;;14.11;94.50;96922.84;5053718;28;20084;-63
2023/06/05 04:08:07;;;;;;;10.45;4.40;;;;;;;14.22;94.42;96916.22;5054305;28;20076;-62
2023/06/05 04:10:34;;;;;;;14.60;4.78;;;;;;;14.34;94.75;96918.28;5054107;28;20053;-63
2023/06/05 04:13:01;;;;;;;10.40;4.13;;;;;;;14.50;93.83;96922.78;5054328;28;20056;-62
2023/06/05 04:15:30;;;;;;;13.55;3.70;;;;;;;14.63;93.58;96916.00;5054154;28;20103;-62
2023/06/05 04:17:58;;;;;;;9.82;4.40;;;;;;;14.75;92.44;96914.56;5054225;28;20041;-64
2023/06/05 04:20:26;;;;;;;13.60;4.95;;;;;;;14.86;91.36;96914.06;5054067;28;20054;-63
2023/06/05 04:22:53;;;;;;;12.23;4.85;;;;;;;15.00;91.15;96916.03;5053982;28;20135;-61
2023/06/05 04:25:20;;;;;;;10.50;5.28;;;;;;;15.14;90.77;96919.75;5054053;28;20486;-62
2023/06/05 04:27:50;;;;;;;9.50;5.18;;;;;;;15.27;89.81;96920.81;5054069;28;20056;-64
2023/06/05 04:30:17;;;;;;;9.50;5.50;;;;;;;15.46;89.02;96924.28;5053796;28;20045;-64
2023/06/05 04:32:54;;;;;;;6.50;4.25;;;;;;;15.63;89.32;96912.88;5053893;28;20084;-63
2023/06/05 04:35:21;;;;;;;9.43;5.15;;;;;;;15.91;89.97;96911.41;5053622;28;20128;-64
2023/06/05 04:37:50;;;;;;;9.48;4.75;;;;;;;16.54;89.17;96909.75;5053775;28;20131;-62
2023/06/05 04:40:20;;;;;;;9.25;4.40;;;;;;;17.16;84.48;96918.59;5053786;28;20041;-61
2023/06/05 04:42:47;;;;;;;8.07;4.70;;;;;;;17.81;82.43;96918.31;5053748;28;20414;-61
2023/06/05 04:45:16;;;;;;;11.50;5.18;;;;;;;18.43;78.57;96911.81;5053739;28;20132;-64
2023/06/05 04:47:43;;;;;;;11.32;4.55;;;;;;;18.77;76.99;96921.19;5053535;28;20486;-62
2023/06/05 04:50:24;;;;;;;13.10;5.65;;;;;;;19.21;74.90;96919.25;5053495;28;20045;-63
2023/06/05 04:52:53;;;;;;;7.07;4.25;;;;;;;19.80;72.12;96914.38;5053497;28;20048;-63
2023/06/05 04:55:21;;;;;;;15.52;4.70;;;;;;;20.04;70.32;96913.63;5053709;28;20526;-64
2023/06/05 04:57:49;;;;;;;7.70;4.38;;;;;;;20.12;70.13;96918.41;5053349;28;20052;-64
2023/06/05 05:00:17;;;;;;;11.23;4.82;;;;;;;20.17;68.78;96921.59;5053474;28;20140;-61
2023/06/05 05:02:44;;;;;;;7.43;4.57;;;;;;;20.19;68.22;96919.66;5053306;28;20053;-62
2023/06/05 05:05:15;;;;;;;9.70;4.90;;;;;;;20.20;68.46;96916.91;5053315;28;20053;-64
2023/06/05 05:07:43;;;;;;;8.27;4.35;;;;;;;20.24;68.68;96919.34;5053335;28;20049;-64
2023/06/05 05:10:11;;;;;;;7.05;4.50;;;;;;;20.51;69.07;96923.63;5053328;28;20068;-62
2023/06/05 05:12:38;;;;;;;7.97;4.75;;;;;;;20.98;67.51;96930.91;5053160;28;20055;-62
2023/06/05 05:15:07;;;;;;;6.78;3.92;;;;;;;21.47;65.44;96934.34;5052854;28;20049;-63
2023/06/05 05:17:34;;;;;;;5.53;4.18;;;;;;;21.65;64.29;96937.41;5052930;28;20507;-63
2023/06/05 05:20:04;;;;;;;10.30;4.00;;;;;;;22.06;63.79;96937.81;5053127;28;20055;-62
2023/06/05 05:22:32;;;;;;;7.50;4.47;;;;;;;22.50;61.81;96941.53;5053004;28;20060;-63
2023/06/05 05:25:00;;;;;;;7.82;4.57;;;;;;;22.78;60.43;96937.50;5046157;28;20041;-63
2023/06/05 05:27:27;;;;;;;9.48;4.32;;;;;;;23.11;58.90;96945.50;5033128;28;20051;-63
2023/06/05 05:29:54;;;;;;;10.30;4.30;;;;;;;23.57;58.08;96942.66;5033167;28;20454;-61
2023/06/05 05:32:21;;;;;;;7.90;4.35;;;;;;;23.73;56.34;96939.53;5033012;28;20100;-63
2023/06/05 05:34:50;;;;;;;7.57;3.85;;;;;;;24.02;56.22;96941.47;5032731;28;20053;-64
2023/06/05 05:37:19;;;;;;;5.97;3.90;;;;;;;24.42;54.17;96945.19;5033014;28;20128;-61
2023/06/05 05:39:47;;;;;;;5.97;3.97;;;;;;;24.70;54.06;96949.91;5033111;28;20415;-61
2023/06/05 05:42:15;;;;;;;6.43;4.28;;;;;;;24.98;53.16;96952.78;5032961;28;20133;-62
2023/06/05 05:44:43;;;;;;;7.40;4.30;;;;;;;25.11;51.84;96948.00;5033096;28;20471;-61
2023/06/05 05:47:11;;;;;;;9.15;3.72;;;;;;;25.31;52.50;96953.34;5033001;28;20050;-62
2023/06/05 05:49:38;;;;;;;7.78;4.22;;;;;;;25.53;52.00;96947.84;5033005;28;20076;-61
2023/06/05 05:52:05;;;;;;;7.57;3.92;;;;;;;25.76;51.05;96947.56;5032785;28;20088;-62
2023/06/05 05:54:33;;;;;;;13.07;4.10;;;;;;;26.02;50.17;96946.91;5032764;28;20132;-63
2023/06/05 05:57:02;;;;;;;7.00;4.18;;;;;;;26.23;49.80;96950.22;5032803;28;20054;-61
2023/06/05 05:59:29;;;;;;;7.60;4.22;;;;;;;26.22;47.66;96945.00;5032710;28;20049;-62
2023/06/05 06:01:58;;;;;;;6.55;3.80;;;;;;;26.32;49.45;96945.84;5033172;28;20045;-62
2023/06/05 06:04:26;;;;;;;8.43;4.20;;;;;;;26.64;49.26;96946.38;5032800;28;20045;-62
2023/06/05 06:06:56;;;;;;;8.85;4.25;;;;;;;26.84;49.58;96938.19;5032681;28;20053;-63
2023/06/05 06:09:24;;;;;;;6.72;3.60;;;;;;;27.09;48.73;96941.16;5032714;28;20169;-62
2023/06/05 06:11:55;;;;;;;6.10;4.40;;;;;;;27.28;47.87;96953.56;5032682;28;20487;-62
2023/06/05 06:14:23;;;;;;;8.93;4.05;;;;;;;27.24;47.00;96949.53;5032691;28;20049;-60
2023/06/05 06:16:51;;;;;;;9.15;4.20;;;;;;;27.24;48.14;96944.16;5032697;28;20136;-62
2023/06/05 06:19:23;;;;;;;9.02;3.70;;;;;;;27.02;47.34;96945.47;5032637;28;20053;-64
2023/06/05 06:21:50;;;;;;;9.73;4.18;;;;;;;26.54;47.88;96946.41;5032561;28;20050;-64
2023/06/05 06:24:19;;;;;;;5.20;3.95;;;;;;;26.07;49.43;96945.47;5032564;28;20050;-63
2023/06/05 06:26:47;;;;;;;7.18;4.13;;;;;;;25.64;50.47;96950.38;5032684;28;20140;-64
2023/06/05 06:29:15;;;;;;;7.00;4.10;;;;;;;25.35;51.20;96946.72;5036343;28;20128;-62
2023/06/05 06:31:44;;;;;;;6.50;4.55;;;;;;;25.03;52.62;96944.34;5036238;28;20132;-62
2023/06/05 06:34:11;;;;;;;5.22;3.92;;;;;;;24.64;53.73;96939.75;5035967;28;20046;-62
2023/06/05 06:36:43;;;;;;;6.57;4.07;;;;;;;24.31;54.72;96940.78;5036167;28;20050;-60
2023/06/05 06:39:11;;;;;;;7.47;3.72;;;;;;;24.07;55.67;96944.59;5036054;28;20408;-63
2023/06/05 06:41:39;;;;;;;9.70;3.88;;;;;;;23.80;56.41;96938.00;5036044;28;20553;-59
2023/06/05 06:44:06;;;;;;;6.43;3.72;;;;;;;23.66;56.92;96938.34;5036122;28;20050;-63
2023/06/05 06:46:33;;;;;;;6.40;4.00;;;;;;;23.50;57.60;96942.31;5036053;28;20137;-65
2023/06/05 06:49:02;;;;;;;6.35;3.78;;;;;;;23.39;58.59;96942.38;5036033;28;20084;-62
2023/06/05 06:51:29;;;;;;;5.82;3.90;;;;;;;23.29;58.50;96937.78;5035790;28;20172;-62
2023/06/05 06:53:56;;;;;;;11.52;3.95;;;;;;;23.21;58.43;96934.94;5035698;28;20053;-62
2023/06/05 06:56:25;;;;;;;8.48;4.05;;;;;;;23.15;58.63;96935.44;5035768;28;20133;-63
2023/06/05 06:58:54;;;;;;;5.63;4.25;;;;;;;23.14;59.06;96934.59;5035681;28;20053;-63
2023/06/05 07:01:22;;;;;;;6.13;3.65;;;;;;;23.10;58.73;96939.34;5035624;28;20137;-61
2023/06/05 07:03:49;;;;;;;8.82;3.97;;;;;;;23.07;59.69;96936.06;5035697;28;20056;-62
2023/06/05 07:06:17;;;;;;;7.13;4.25;;;;;;;23.01;59.39;96937.44;5035502;28;20049;-63
2023/06/05 07:08:44;;;;;;;8.98;4.32;;;;;;;22.91;59.67;96940.00;5035606;28;20049;-62
2023/06/05 07:11:12;;;;;;;8.15;4.05;;;;;;;22.93;59.55;96934.53;5035471;28;20112;-62
2023/06/05 07:13:39;;;;;;;4.70;3.97;;;;;;;22.97;59.50;96942.16;5035322;28;20499;-61
2023/06/05 07:16:06;;;;;;;8.68;3.95;;;;;;;23.04;58.53;96937.19;5035419;28;20050;-62
2023/06/05 07:18:33;;;;;;;5.75;4.00;;;;;;;23.04;59.37;96931.00;5035387;28;20492;-64
2023/06/05 07:21:00;;;;;;;5.47;3.97;;;;;;;23.05;55.95;96935.34;5035461;28;20450;-61
2023/06/05 07:23:28;;;;;;;5.63;3.85;;;;;;;23.08;55.95;96937.75;5035251;28;20450;-62
2023/06/05 07:25:56;;;;;;;10.30;3.63;;;;;;;23.46;56.79;96935.56;5035127;28;20053;-63
2023/06/05 07:28:24;;;;;;;8.00;3.45;;;;;;;24.00;52.38;96946.13;5035191;28;20407;-62
2023/06/05 07:30:51;;;;;;;5.18;2.95;;;;;;;24.60;52.61;96944.53;5035225;28;20077;-64
2023/06/05 07:33:20;;;;;;;5.18;3.90;;;;;;;24.66;50.41;96949.34;5034897;28;20111;-61
2023/06/05 07:35:48;;;;;;;7.15;3.30;;;;;;;24.86;51.47;96944.00;5035107;28;20137;-64
2023/06/05 07:38:15;;;;;;;6.25;3.38;;;;;;;25.15;49.82;96945.91;5034871;28;20144;-63
2023/06/05 07:40:44;;;;;;;5.07;3.20;;;;;;;25.38;49.90;96945.63;5035051;28;20096;-62
2023/06/05 07:43:14;;;;;;;11.68;4.00;;;;;;;25.41;49.92;96948.00;5034957;28;20049;-61
2023/06/05 07:45:41;;;;;;;7.00;3.40;;;;;;;25.16;49.32;96946.75;5035035;28;20140;-64
2023/06/05 07:48:08;;;;;;;5.55;3.80;;;;;;;25.08;50.28;96950.94;5034726;28;20050;-63
2023/06/05 07:50:35;;;;;;;10.93;4.03;;;;;;;25.22;50.11;96947.00;5034803;28;20045;-62
2023/06/05 07:53:03;;;;;;;7.35;3.58;;;;;;;25.09;49.46;96954.47;5034530;28;20141;-63
2023/06/05 07:55:30;;;;;;;8.32;4.03;;;;;;;24.88;49.36;96950.09;5034633;28;20049;-63
2023/06/05 07:57:59;;;;;;;7.55;4.15;;;;;;;24.71;50.02;96951.59;5034631;28;20049;-65
2023/06/05 08:00:28;;;;;;;5.85;4.03;;;;;;;24.51;48.98;96954.22;5034655;28;20049;-63
2023/06/05 08:02:57;;;;;;;9.05;4.20;;;;;;;24.30;49.02;96955.16;5034542;28;20073;-62
2023/06/05 08:05:24;;;;;;;13.27;3.70;;;;;;;24.17;49.47;96952.69;5034521;28;20056;-64
2023/06/05 08:07:51;;;;;;;11.82;4.53;;;;;;;23.94;49.21;96957.34;5034523;28;20041;-61
2023/06/05 08:10:19;;;;;;;6.10;3.45;;;;;;;23.79;50.33;96952.34;5034491;28;20058;-61
2023/06/05 08:12:45;;;;;;;6.07;3.90;;;;;;;23.77;50.92;96950.75;5034224;28;20060;-61
2023/06/05 08:15:14;;;;;;;8.82;4.03;;;;;;;23.73;51.19;96950.19;5034288;28;20144;-64
2023/06/05 08:17:41;;;;;;;8.27;4.03;;;;;;;23.73;51.40;96945.72;5034285;28;20450;-65
2023/06/05 08:20:10;;;;;;;7.55;3.60;;;;;;;23.88;50.80;96952.53;5034154;28;20562;-61
2023/06/05 08:22:39;;;;;;;7.97;3.85;;;;;;;24.33;52.76;96954.03;5034207;28;20056;-64
2023/06/05 08:25:08;;;;;;;8.35;3.70;;;;;;;24.69;46.34;96946.41;5034180;28;20498;-64
2023/06/05 08:27:35;;;;;;;12.13;3.45;;;;;;;25.01;49.83;96940.97;5034005;28;20136;-63
2023/06/05 08:30:02;;;;;;;7.88;3.38;;;;;;;25.40;43.24;96938.28;5034155;28;20049;-64
2023/06/05 08:32:30;;;;;;;10.05;3.80;;;;;;;25.64;46.43;96939.66;5033962;28;20096;-61
2023/06/05 08:34:57;;;;;;;8.77;3.08;;;;;;;25.79;45.21;96945.41;5033743;28;20046;-62
2023/06/05 08:37:25;;;;;;;19.27;3.33;;;;;;;25.86;41.58;96934.97;5033852;28;20042;-63
2023/06/05 08:39:52;;;;;;;7.50;3.10;;;;;;;26.12;43.51;96932.50;5033890;28;20056;-64
2023/06/05 08:42:20;;;;;;;4.35;2.45;;;;;;;26.30;42.53;96937.09;5033794;28;20442;-65
2023/06/05 08:44:48;;;;;;;7.32;2.85;;;;;;;26.47;42.01;96935.47;5033763;28;20045;-65
2023/06/05 08:47:17;;;;;;;6.10;2.30;;;;;;;26.60;41.45;96931.56;5033651;28;20128;-65
2023/06/05 08:49:46;;;;;;;5.55;2.45;;;;;;;26.63;41.36;96933.94;5033137;28;20813;-62
2023/06/05 08:52:14;;;;;;;4.15;2.25;;;;;;;26.70;41.57;96926.16;5033518;28;20095;-63
2023/06/05 08:54:42;;;;;;;5.93;2.55;;;;;;;26.81;40.60;96930.44;5033518;28;20484;-62
2023/06/05 08:57:10;;;;;;;3.08;2.78;;;;;;;26.81;38.71;96935.81;5033475;28;20049;-64
2023/06/05 08:59:38;;;;;;;5.95;2.63;;;;;;;26.92;38.63;96934.75;5033462;28;20092;-62
2023/06/05 09:02:05;;;;;;;8.25;2.75;;;;;;;26.92;37.82;96935.59;5033384;28;20050;-63
2023/06/05 09:04:32;;;;;;;3.67;2.35;;;;;;;26.88;34.19;96927.00;5033471;28;20406;-65
2023/06/05 09:07:01;;;;;;;5.90;3.15;;;;;;;26.92;38.73;96929.38;5033400;28;20099;-64
2023/06/05 09:09:28;;;;;;;8.25;2.47;;;;;;;26.69;34.12;96933.34;5033389;28;20128;-65
2023/06/05 09:12:05;;;;;;;4.20;2.70;;;;;;;26.71;39.60;96934.06;5033313;28;20565;-65
2023/06/05 09:14:33;;;;;;;5.18;2.30;;;;;;;26.60;34.62;96939.59;5033365;28;20053;-63
2023/06/05 09:17:01;;;;;;;4.65;2.58;;;;;;;26.36;36.30;96933.81;5033454;28;20092;-65
2023/06/05 09:19:37;;;;;;;4.25;2.58;;;;;;;26.39;38.83;96934.53;5033170;28;20041;-64
2023/06/05 09:22:08;;;;;;;5.05;2.90;;;;;;;26.30;39.85;96936.22;5033230;28;20053;-64
2023/06/05 09:24:35;;;;;;;4.63;3.13;;;;;;;26.37;37.04;96937.34;5033372;28;20045;-64
2023/06/05 09:27:04;;;;;;;3.60;2.25;;;;;;;26.19;35.00;96939.94;5033266;28;20061;-63
2023/06/05 09:29:33;;;;;;;3.40;2.42;;;;;;;26.11;34.96;96941.53;5033301;28;20045;-63
2023/06/05 09:32:01;;;;;;;5.65;3.20;;;;;;;25.93;37.18;96936.09;5033066;28;20112;-65
2023/06/05 09:34:30;;;;;;;11.32;3.35;;;;;;;25.97;36.35;96940.16;5032825;28;20045;-62
2023/06/05 09:36:58;;;;;;;11.02;3.10;;;;;;;25.93;36.63;96941.44;5033128;28;20057;-62
2023/06/05 09:39:28;;;;;;;7.15;3.08;;;;;;;25.98;40.18;96938.34;5033073;28;20051;-63
2023/06/05 09:41:57;;;;;;;5.97;3.00;;;;;;;25.98;36.59;96931.13;5033070;28;20132;-63
2023/06/05 09:44:26;;;;;;;8.98;3.05;;;;;;;26.06;38.23;96922.34;5032955;28;20056;-65
2023/06/05 09:46:54;;;;;;;6.82;2.95;;;;;;;26.02;41.41;96929.00;5032922;28;20128;-63
2023/06/05 09:49:22;;;;;;;5.35;3.00;;;;;;;25.89;39.65;96931.16;5033015;28;20050;-64
2023/06/05 09:51:49;;;;;;;4.75;2.90;;;;;;;25.87;37.28;96931.31;5032930;28;20088;-62
2023/06/05 09:54:17;;;;;;;6.90;2.92;;;;;;;25.82;38.82;96923.69;5032974;28;20052;-63
2023/06/05 09:56:50;;;;;;;8.57;3.00;;;;;;;25.48;37.48;96922.34;5032822;28;20056;-63
2023/06/05 09:59:22;;;;;;;6.90;2.47;;;;;;;25.24;37.41;96925.47;5032943;28;20478;-62
2023/06/05 10:01:52;;;;;;;5.93;2.90;;;;;;;24.70;39.03;96917.81;5034532;28;20085;-64
2023/06/05 10:04:23;;;;;;;6.47;2.92;;;;;;;24.64;37.02;96913.84;5036756;28;20049;-65
2023/06/05 10:06:53;;;;;;;4.95;2.85;;;;;;;24.73;40.44;96907.69;5036677;28;20107;-64
2023/06/05 10:09:21;;;;;;;3.97;2.92;;;;;;;24.84;39.08;96916.56;5036712;28;20053;-64
2023/06/05 10:11:53;;;;;;;4.72;2.88;;;;;;;24.84;41.65;96912.03;5036571;28;20046;-62
2023/06/05 10:14:21;;;;;;;7.70;2.83;;;;;;;25.11;39.78;96907.84;5036702;28;20049;-62
2023/06/05 10:16:51;;;;;;;4.75;2.70;;;;;;;25.44;40.30;96904.91;5036471;28;20061;-62
2023/06/05 10:19:20;;;;;;;5.22;2.75;;;;;;;25.53;39.68;96908.53;5036555;28;20081;-65
2023/06/05 10:21:49;;;;;;;3.67;2.50;;;;;;;25.41;36.75;96907.84;5036462;28;20423;-61
2023/06/05 10:24:21;;;;;;;7.22;2.80;;;;;;;24.87;37.63;96902.94;5036380;28;20045;-62
2023/06/05 10:27:35;;;;;;;7.05;3.05;;;;;;;24.74;38.72;96904.03;5036252;28;20128;-64
2023/06/05 10:30:26;;;;;;;7.68;3.10;;;;;;;24.95;42.28;96899.56;5036114;28;20053;-63
2023/06/05 10:33:09;;;;;;;4.53;2.58;;;;;;;25.13;39.31;96898.88;5036298;28;20459;-64
2023/06/05 10:35:47;;;;;;;6.85;2.88;;;;;;;24.83;37.34;96902.34;5035981;28;20050;-64
2023/06/05 10:38:20;;;;;;;9.40;3.25;;;;;;;25.00;39.23;96899.97;5036099;28;20055;-65
2023/06/05 10:40:49;;;;;;;3.78;2.60;;;;;;;25.05;37.48;96903.09;5036069;28;20566;-63
2023/06/05 10:43:27;;;;;;;6.72;2.80;;;;;;;24.92;36.40;96898.00;5036219;28;20046;-61
2023/06/05 10:45:57;;;;;;;7.13;2.85;;;;;;;25.02;40.88;96892.69;5036063;28;20132;-64
2023/06/05 10:49:08;;;;;;;6.47;2.72;;;;;;;25.33;39.80;96894.31;5035946;28;20072;-64
2023/06/05 10:51:39;;;;;;;7.28;3.15;;;;;;;25.30;42.58;96897.28;5035859;28;20483;-64
2023/06/05 10:54:07;;;;;;;4.88;2.70;;;;;;;25.32;40.30;96904.22;5035784;28;20085;-63
2023/06/05 10:56:55;;;;;;;4.07;2.92;;;;;;;24.99;40.08;96898.31;5035814;28;20511;-61
2023/06/05 10:59:23;;;;;;;5.75;3.00;;;;;;;24.88;42.28;96890.41;5035717;28;20057;-64
2023/06/05 11:02:27;;;;;;;5.30;3.08;;;;;;;24.64;42.66;96903.16;5035740;28;20465;-62
2023/06/05 11:05:13;;;;;;;5.15;3.10;;;;;;;24.49;42.01;96897.38;5035770;28;20049;-64
2023/06/05 11:07:42;;;;;;;7.45;2.88;;;;;;;24.37;43.56;96904.66;5035700;28;20049;-64
2023/06/05 11:10:15;;;;;;;6.40;2.88;;;;;;;24.45;45.17;96894.13;5035799;28;20053;-65
2023/06/05 11:13:02;;;;;;;7.13;3.00;;;;;;;24.60;46.17;96896.41;5034984;28;20056;-62
2023/06/05 11:15:37;;;;;;;8.23;3.08;;;;;;;24.76;45.68;96893.19;5035378;28;20125;-64
2023/06/05 11:18:31;;;;;;;7.32;3.40;;;;;;;24.53;42.00;96893.44;5035460;28;20096;-65
2023/06/05 11:21:00;;;;;;;5.88;2.92;;;;;;;24.60;44.09;96891.06;5035404;28;20457;-61
2023/06/05 11:23:29;;;;;;;4.10;3.15;;;;;;;24.68;42.89;96893.06;5035356;28;20053;-63
2023/06/05 11:25:58;;;;;;;6.90;3.10;;;;;;;24.67;45.89;96891.34;5035371;28;20087;-65
2023/06/05 11:28:41;;;;;;;5.72;2.80;;;;;;;24.82;44.02;96891.78;5035158;28;20103;-62
2023/06/05 11:31:08;;;;;;;7.82;3.42;;;;;;;24.33;44.26;96893.41;5033442;28;20046;-61
2023/06/05 11:33:36;;;;;;;7.88;3.50;;;;;;;24.17;46.76;96885.06;5034876;28;20511;-61
2023/06/05 11:36:06;;;;;;;5.65;3.33;;;;;;;23.95;45.09;96893.09;5035145;28;20045;-63
2023/06/05 11:38:34;;;;;;;7.65;3.20;;;;;;;24.02;46.22;96887.22;5035065;28;20056;-62
2023/06/05 11:41:08;;;;;;;5.93;3.30;;;;;;;24.00;42.73;96892.69;5034986;28;20049;-64